Time;durP1;ratioP1;P1;durP2;ratioP2;P2;SDS_P1;SDS_P2;PMS_P1;PMS_P2;Temp;Humidity;BMP_temperature;BMP_pressure;BME280_temperature;BME280_humidity;BME280_pressure;Samples;Min_cycle;Max_cycle;Signal;HPM_P1;HPM_P2
2022/06/08 00:00:15;;;;;;;1.73;0.65;;;23.70;37.50;;;;;;6242367;28;20473;-71
2022/06/08 00:03:28;;;;;;;1.13;0.75;;;23.50;37.70;;;;;;6251410;28;20033;-71
2022/06/08 00:06:29;;;;;;;11.75;0.90;;;23.50;37.80;;;;;;6262131;28;20040;-72
2022/06/08 00:09:30;;;;;;;4.50;0.85;;;23.40;38.00;;;;;;6247388;28;20073;-71
2022/06/08 00:12:31;;;;;;;1.05;0.85;;;23.30;38.00;;;;;;6263686;28;20033;-71
2022/06/08 00:15:32;;;;;;;1.50;0.90;;;23.30;38.10;;;;;;6260470;28;20057;-71
2022/06/08 00:18:33;;;;;;;1.23;1.10;;;23.30;38.10;;;;;;6249455;28;20042;-71
2022/06/08 00:21:34;;;;;;;2.17;1.05;;;23.20;38.00;;;;;;6248196;28;20140;-70
2022/06/08 00:24:35;;;;;;;1.20;0.80;;;23.20;38.10;;;;;;6247890;28;20037;-71
2022/06/08 00:27:36;;;;;;;5.20;0.93;;;23.20;38.20;;;;;;6259828;28;20036;-70
2022/06/08 00:30:37;;;;;;;4.55;1.10;;;23.20;38.40;;;;;;6251029;28;20033;-70
2022/06/08 00:33:38;;;;;;;1.83;1.00;;;23.20;38.60;;;;;;6266472;28;20025;-70
2022/06/08 00:36:39;;;;;;;4.90;1.15;;;23.20;38.50;;;;;;6247688;28;20099;-70
2022/06/08 00:39:40;;;;;;;1.05;0.75;;;23.30;38.80;;;;;;6280467;28;20470;-70
2022/06/08 00:42:42;;;;;;;1.17;0.85;;;23.30;38.90;;;;;;6247363;28;20044;-71
2022/06/08 00:45:43;;;;;;;2.53;0.80;;;23.30;38.90;;;;;;6248390;28;20056;-70
2022/06/08 00:48:50;;;;;;;1.90;0.85;;;23.20;38.80;;;;;;6281256;28;20465;-70
2022/06/08 00:51:52;;;;;;;1.43;0.70;;;23.20;38.80;;;;;;6229967;28;20041;-70
2022/06/08 00:55:01;;;;;;;5.78;0.85;;;23.10;38.90;;;;;;6244985;28;20031;-70
2022/06/08 00:58:06;;;;;;;3.22;0.95;;;23.10;39.20;;;;;;6279517;28;20049;-71
2022/06/08 01:01:07;;;;;;;1.83;0.82;;;23.00;39.50;;;;;;6250053;28;20034;-71
2022/06/08 01:04:14;;;;;;;3.50;0.90;;;22.90;39.50;;;;;;6279379;28;20052;-71
2022/06/08 01:07:20;;;;;;;2.85;1.05;;;22.80;39.60;;;;;;6254086;28;20037;-71
2022/06/08 01:10:34;;;;;;;2.38;0.88;;;22.80;39.60;;;;;;6249376;28;20026;-71
2022/06/08 01:13:37;;;;;;;1.00;0.70;;;22.70;39.70;;;;;;6262724;28;20048;-71
2022/06/08 01:16:56;;;;;;;3.75;0.80;;;22.60;39.70;;;;;;6262199;28;20040;-71
2022/06/08 01:19:58;;;;;;;2.47;0.90;;;22.60;39.90;;;;;;6245844;28;20041;-71
2022/06/08 01:23:04;;;;;;;2.20;0.85;;;22.60;39.90;;;;;;6244217;28;20025;-70
2022/06/08 01:26:21;;;;;;;1.33;0.80;;;22.60;40.00;;;;;;6248771;28;20029;-71
2022/06/08 01:29:31;;;;;;;6.38;0.82;;;22.50;40.00;;;;;;6256160;28;20037;-70
2022/06/08 01:32:42;;;;;;;5.10;1.02;;;22.60;40.20;;;;;;6246818;28;20033;-72
2022/06/08 01:36:07;;;;;;;6.38;0.85;;;22.50;40.40;;;;;;6278517;28;20336;-69
2022/06/08 01:39:16;;;;;;;2.72;0.98;;;22.50;40.50;;;;;;6247176;28;20041;-71
2022/06/08 01:42:25;;;;;;;5.88;0.85;;;22.50;40.50;;;;;;6243041;28;20040;-71
2022/06/08 01:45:55;;;;;;;1.08;0.70;;;22.40;40.60;;;;;;6244200;28;20072;-71
2022/06/08 01:49:49;;;;;;;3.08;0.90;;;22.40;40.70;;;;;;6263657;28;20385;-71
2022/06/08 01:53:02;;;;;;;4.35;0.80;;;22.40;41.00;;;;;;6246546;28;20541;-71
2022/06/08 01:56:41;;;;;;;1.10;0.70;;;22.30;41.20;;;;;;6242183;28;20033;-71
2022/06/08 02:00:04;;;;;;;3.60;1.05;;;22.30;41.50;;;;;;6233241;28;20041;-71
2022/06/08 02:03:25;;;;;;;6.53;0.70;;;22.20;41.60;;;;;;6244541;28;20490;-70
2022/06/08 02:06:40;;;;;;;0.93;0.50;;;22.20;41.80;;;;;;6228217;28;20438;-71
2022/06/08 02:10:02;;;;;;;1.35;0.75;;;22.20;41.70;;;;;;6229558;28;20029;-70
2022/06/08 02:13:27;;;;;;;1.05;0.73;;;22.10;41.60;;;;;;6242295;28;20037;-70
2022/06/08 02:16:53;;;;;;;1.73;0.65;;;22.10;41.50;;;;;;6230533;28;20029;-70
2022/06/08 02:20:19;;;;;;;5.63;0.82;;;22.10;41.50;;;;;;6244839;28;20100;-70
2022/06/08 02:23:28;;;;;;;4.20;0.82;;;22.10;41.60;;;;;;6243581;28;20112;-70
2022/06/08 02:26:36;;;;;;;2.30;0.93;;;22.00;41.50;;;;;;6231731;28;20038;-70
2022/06/08 02:29:55;;;;;;;7.15;0.93;;;22.00;41.60;;;;;;6259290;28;20091;-70
2022/06/08 02:36:35;;;;;;;1.63;0.70;;;22.00;41.70;;;;;;6257162;28;20033;-71
2022/06/08 02:39:47;;;;;;;6.95;0.90;;;22.00;42.00;;;;;;6241307;28;20041;-71
2022/06/08 02:42:59;;;;;;;2.53;0.60;;;21.90;42.00;;;;;;6247007;28;20474;-71
2022/06/08 02:46:22;;;;;;;11.27;1.17;;;21.90;42.00;;;;;;6244640;28;20040;-71
2022/06/08 02:49:23;;;;;;;2.00;0.65;;;21.90;42.10;;;;;;6256218;28;20033;-70
2022/06/08 02:52:26;;;;;;;8.27;0.80;;;21.90;42.10;;;;;;6276999;28;20037;-71
2022/06/08 02:56:06;;;;;;;1.30;0.70;;;21.90;42.20;;;;;;6246342;28;20112;-70
2022/06/08 02:59:30;;;;;;;6.05;1.10;;;21.90;42.20;;;;;;6244001;28;20030;-70
2022/06/08 03:02:55;;;;;;;7.93;1.42;;;21.80;42.20;;;;;;6258551;28;20072;-70
2022/06/08 03:06:09;;;;;;;2.60;0.90;;;21.80;42.40;;;;;;6255274;28;20025;-70
2022/06/08 03:09:13;;;;;;;3.10;0.88;;;21.70;42.50;;;;;;6261300;28;20040;-70
2022/06/08 03:12:31;;;;;;;1.10;0.93;;;21.70;42.60;;;;;;6238900;28;20164;-70
2022/06/08 03:15:33;;;;;;;2.65;1.38;;;21.70;42.80;;;;;;6261634;28;20120;-70
2022/06/08 03:18:35;;;;;;;1.08;0.80;;;21.60;42.70;;;;;;6234604;28;20025;-70
2022/06/08 03:21:37;;;;;;;2.08;0.95;;;21.60;42.70;;;;;;6251958;28;20021;-70
2022/06/08 03:24:39;;;;;;;6.70;1.58;;;21.60;42.60;;;;;;6239563;28;20060;-70
2022/06/08 03:27:43;;;;;;;0.68;0.65;;;21.60;42.70;;;;;;6260724;28;20068;-70
2022/06/08 03:30:45;;;;;;;0.95;0.70;;;21.70;42.80;;;;;;6247686;28;20513;-70
2022/06/08 03:33:46;;;;;;;2.65;1.15;;;21.60;42.90;;;;;;6251232;28;20037;-70
2022/06/08 03:36:47;;;;;;;6.95;0.90;;;21.60;43.00;;;;;;6232976;28;20040;-70
2022/06/08 03:39:49;;;;;;;1.48;0.80;;;21.60;43.10;;;;;;6248117;28;20026;-70
2022/06/08 03:42:50;;;;;;;8.07;1.17;;;21.60;43.10;;;;;;6246786;28;20072;-70
2022/06/08 03:45:55;;;;;;;4.03;0.73;;;21.60;43.00;;;;;;6251718;28;20041;-70
2022/06/08 03:48:58;;;;;;;5.82;0.80;;;21.60;43.00;;;;;;6233202;28;20029;-70
2022/06/08 03:52:00;;;;;;;2.25;1.00;;;21.60;43.00;;;;;;6249828;28;20519;-70
2022/06/08 03:55:04;;;;;;;5.75;1.10;;;21.60;43.10;;;;;;6247838;28;20067;-70
2022/06/08 03:58:07;;;;;;;1.48;0.75;;;21.50;43.20;;;;;;6231376;28;20057;-71
2022/06/08 04:01:12;;;;;;;1.35;0.90;;;21.60;43.30;;;;;;6255225;28;20466;-70
2022/06/08 04:04:15;;;;;;;2.10;0.90;;;21.60;43.40;;;;;;6247759;28;20032;-69
2022/06/08 04:07:16;;;;;;;2.05;0.80;;;21.50;43.40;;;;;;6228639;28;20091;-70
2022/06/08 04:10:21;;;;;;;4.38;1.58;;;21.60;43.40;;;;;;6255893;28;20459;-70
2022/06/08 04:13:26;;;;;;;3.55;1.30;;;21.60;43.40;;;;;;6231693;28;20075;-70
2022/06/08 04:16:33;;;;;;;2.88;0.80;;;21.60;43.40;;;;;;6248641;28;20029;-70
2022/06/08 04:19:38;;;;;;;1.95;1.00;;;21.60;43.40;;;;;;6234686;28;20033;-70
2022/06/08 04:22:42;;;;;;;0.93;0.80;;;21.60;43.40;;;;;;6231747;28;20116;-70
2022/06/08 04:25:44;;;;;;;1.23;0.90;;;21.60;43.50;;;;;;6247131;28;20042;-70
2022/06/08 04:28:47;;;;;;;6.90;1.00;;;21.60;43.50;;;;;;6249296;28;20045;-69
2022/06/08 04:31:52;;;;;;;1.02;0.63;;;21.60;44.30;;;;;;6227821;28;20107;-69
2022/06/08 04:34:57;;;;;;;1.83;1.00;;;21.50;43.80;;;;;;6268105;28;20037;-69
2022/06/08 04:37:59;;;;;;;3.05;1.00;;;21.40;43.90;;;;;;6248824;28;20026;-69
2022/06/08 04:41:02;;;;;;;2.65;0.80;;;21.40;44.10;;;;;;6261704;28;20120;-69
2022/06/08 04:44:06;;;;;;;1.13;0.93;;;21.40;44.10;;;;;;6267091;28;20040;-69
2022/06/08 04:47:08;;;;;;;9.90;0.95;;;21.40;44.10;;;;;;6252949;28;20040;-70
2022/06/08 04:50:11;;;;;;;1.35;0.80;;;21.40;44.10;;;;;;6247458;28;20036;-69
2022/06/08 04:53:13;;;;;;;2.45;0.90;;;21.40;44.20;;;;;;6249917;28;20129;-69
2022/06/08 04:56:16;;;;;;;1.90;1.10;;;21.40;44.30;;;;;;6247171;28;20109;-69
2022/06/08 04:59:18;;;;;;;0.95;0.85;;;21.30;44.40;;;;;;6262828;28;20025;-69
2022/06/08 05:02:45;;;;;;;0.97;0.83;;;21.30;44.40;;;;;;6260391;28;20025;-69
2022/06/08 05:06:09;;;;;;;7.43;1.20;;;21.40;44.40;;;;;;6245738;28;20037;-71
2022/06/08 05:09:10;;;;;;;6.40;1.20;;;21.40;44.40;;;;;;6271466;28;20029;-69
2022/06/08 05:12:16;;;;;;;1.77;0.95;;;21.40;44.70;;;;;;6261135;28;20044;-70
2022/06/08 05:15:32;;;;;;;5.18;1.70;;;21.40;44.40;;;;;;6259517;28;20120;-69
2022/06/08 05:18:36;;;;;;;7.15;1.05;;;21.50;45.00;;;;;;6263584;28;20026;-69
2022/06/08 05:21:41;;;;;;;4.03;1.25;;;21.60;44.30;;;;;;6263474;28;20014;-69
2022/06/08 05:24:47;;;;;;;3.97;0.90;;;21.60;44.30;;;;;;6246896;28;20133;-69
2022/06/08 05:27:48;;;;;;;3.40;1.25;;;21.60;44.40;;;;;;6257785;28;20029;-72
2022/06/08 05:30:51;;;;;;;2.40;1.05;;;21.60;44.40;;;;;;6244384;28;20116;-69
2022/06/08 05:33:56;;;;;;;3.35;1.50;;;21.60;44.30;;;;;;6261466;28;20033;-70
2022/06/08 05:36:57;;;;;;;2.60;0.90;;;21.70;44.40;;;;;;6278187;28;20033;-70
2022/06/08 05:40:02;;;;;;;6.90;1.10;;;21.70;44.30;;;;;;6225611;28;20025;-71
2022/06/08 05:43:07;;;;;;;3.17;1.20;;;21.80;44.30;;;;;;6252181;28;20538;-71
2022/06/08 05:46:09;;;;;;;3.88;1.33;;;21.80;44.10;;;;;;6260958;28;20029;-72
2022/06/08 05:49:12;;;;;;;2.28;1.00;;;21.90;44.00;;;;;;6253742;28;20121;-70
2022/06/08 05:52:17;;;;;;;1.95;1.05;;;21.90;43.80;;;;;;6241519;28;20112;-71
2022/06/08 05:55:21;;;;;;;2.50;1.30;;;22.00;43.90;;;;;;6258491;28;20672;-71
2022/06/08 05:58:22;;;;;;;5.40;1.67;;;22.00;43.80;;;;;;6244429;28;20026;-71
2022/06/08 06:01:25;;;;;;;2.67;1.10;;;22.00;43.80;;;;;;6263724;28;20455;-72
2022/06/08 06:04:26;;;;;;;1.33;0.90;;;22.00;43.60;;;;;;6245422;28;20025;-70
2022/06/08 06:07:30;;;;;;;3.78;1.17;;;22.10;43.40;;;;;;6255753;28;20049;-71
2022/06/08 06:10:49;;;;;;;2.00;0.82;;;22.10;43.30;;;;;;6266143;28;20026;-71
2022/06/08 06:14:01;;;;;;;4.93;1.45;;;22.10;43.20;;;;;;6252894;28;20052;-70
2022/06/08 06:17:04;;;;;;;3.30;1.05;;;22.20;43.10;;;;;;6258338;28;20026;-71
2022/06/08 06:20:07;;;;;;;1.30;0.80;;;22.20;43.00;;;;;;6243893;28;20072;-72
2022/06/08 06:23:30;;;;;;;1.95;1.27;;;22.20;43.00;;;;;;6271260;28;20077;-71
2022/06/08 06:26:44;;;;;;;40.15;2.85;;;22.20;43.00;;;;;;6245109;28;20034;-71
2022/06/08 06:29:54;;;;;;;49.20;3.97;;;22.30;43.00;;;;;;6245628;28;20091;-72
2022/06/08 06:33:16;;;;;;;18.75;2.53;;;22.20;43.00;;;;;;6257233;28;20354;-71
2022/06/08 06:36:22;;;;;;;112.82;9.10;;;22.30;43.10;;;;;;6248319;28;20047;-69
2022/06/08 06:39:23;;;;;;;20.10;2.08;;;22.30;42.90;;;;;;6240605;28;20111;-70
2022/06/08 06:42:32;;;;;;;8.32;1.63;;;22.40;42.90;;;;;;6247531;28;20041;-71
2022/06/08 06:46:03;;;;;;;7.35;1.05;;;22.50;42.50;;;;;;6244655;28;20095;-72
2022/06/08 06:49:22;;;;;;;6.22;1.20;;;22.60;42.10;;;;;;6241572;28;20371;-71
2022/06/08 06:52:26;;;;;;;2.58;1.10;;;22.70;42.00;;;;;;6247947;28;20037;-71
2022/06/08 06:55:32;;;;;;;2.70;1.02;;;22.80;41.80;;;;;;6244568;28;20056;-71
2022/06/08 06:58:38;;;;;;;3.03;1.20;;;22.90;41.40;;;;;;6240737;28;20021;-71
2022/06/08 07:01:41;;;;;;;4.45;1.75;;;22.90;41.00;;;;;;6259419;28;20036;-71
2022/06/08 07:04:42;;;;;;;4.65;1.17;;;22.90;41.00;;;;;;6277130;28;20064;-71
2022/06/08 07:07:44;;;;;;;3.03;1.10;;;23.00;41.10;;;;;;6278064;28;20367;-71
2022/06/08 07:11:32;;;;;;;4.00;0.73;;;23.00;41.00;;;;;;6236691;28;20060;-71
2022/06/08 07:14:12;;;;;;;5.40;1.13;;;23.10;41.00;;;;;;6275068;28;20033;-71
2022/06/08 07:17:13;;;;;;;2.85;1.10;;;23.20;41.00;;;;;;6260494;28;20367;-70
2022/06/08 07:20:18;;;;;;;4.20;1.25;;;23.30;41.00;;;;;;6258180;28;20838;-70
2022/06/08 07:23:19;;;;;;;2.65;0.98;;;23.40;40.90;;;;;;6242119;28;20076;-71
2022/06/08 07:26:24;;;;;;;7.30;1.48;;;23.60;40.60;;;;;;6242179;28;20373;-71
2022/06/08 07:29:25;;;;;;;8.95;1.60;;;23.60;40.30;;;;;;6236195;28;20068;-71
2022/06/08 07:32:26;;;;;;;6.97;1.40;;;23.70;40.20;;;;;;6245940;28;20039;-72
2022/06/08 07:35:27;;;;;;;1.65;0.85;;;23.70;40.20;;;;;;6259480;28;20155;-70
2022/06/08 07:38:27;;;;;;;3.15;1.10;;;23.70;40.10;;;;;;6259390;28;20029;-71
2022/06/08 07:41:28;;;;;;;5.22;1.40;;;23.80;40.10;;;;;;6243912;28;20030;-71
2022/06/08 07:44:30;;;;;;;7.03;1.27;;;23.90;40.10;;;;;;6245672;28;20063;-72
2022/06/08 07:47:30;;;;;;;2.67;1.10;;;24.00;40.00;;;;;;6275920;28;20113;-71
2022/06/08 07:50:32;;;;;;;5.80;1.17;;;24.20;39.70;;;;;;6243885;28;20033;-70
2022/06/08 07:53:34;;;;;;;3.65;1.40;;;24.40;39.40;;;;;;6235595;28;20440;-71
2022/06/08 07:56:36;;;;;;;6.90;1.90;;;24.60;39.20;;;;;;6244311;28;20040;-71
2022/06/08 07:59:38;;;;;;;4.55;1.77;;;24.80;39.00;;;;;;6254121;28;20081;-71
2022/06/08 08:02:39;;;;;;;13.05;1.60;;;24.80;38.90;;;;;;6249127;28;20394;-71
2022/06/08 08:05:41;;;;;;;2.80;1.20;;;24.80;38.80;;;;;;6247906;28;20102;-71
2022/06/08 08:08:43;;;;;;;3.17;1.20;;;24.90;38.80;;;;;;6244940;28;20025;-73
2022/06/08 08:11:52;;;;;;;9.52;1.23;;;25.00;38.80;;;;;;6261445;28;20029;-71
2022/06/08 08:14:54;;;;;;;2.20;0.90;;;25.10;38.50;;;;;;6242021;28;20037;-70
2022/06/08 08:17:56;;;;;;;2.53;1.13;;;25.10;38.50;;;;;;6251855;28;20068;-70
2022/06/08 08:20:57;;;;;;;3.80;1.00;;;25.10;38.60;;;;;;6243440;28;20033;-69
2022/06/08 08:23:59;;;;;;;4.85;1.50;;;25.10;38.50;;;;;;6244940;28;20037;-69
2022/06/08 08:27:00;;;;;;;3.90;1.10;;;25.00;38.60;;;;;;6241068;28;20067;-70
2022/06/08 08:30:03;;;;;;;2.90;1.20;;;24.90;38.80;;;;;;6249777;28;20442;-72
2022/06/08 08:33:04;;;;;;;1.95;1.08;;;24.90;38.80;;;;;;6250157;28;20029;-71
2022/06/08 08:36:05;;;;;;;3.05;1.00;;;24.90;38.60;;;;;;6256272;28;20092;-70
2022/06/08 08:39:06;;;;;;;4.28;2.00;;;24.90;38.40;;;;;;6223592;28;20113;-72
2022/06/08 10:23:39;;;;;;;4.63;0.98;;;23.80;42.60;;;;;;6261509;28;20068;-71
2022/06/08 10:26:51;;;;;;;7.20;0.90;;;23.70;42.80;;;;;;6199058;28;20050;-71
2022/06/08 10:30:15;;;;;;;5.07;1.10;;;23.70;43.40;;;;;;6187809;28;20069;-71
2022/06/08 10:33:38;;;;;;;3.15;1.15;;;23.60;43.80;;;;;;6195184;28;20037;-71
2022/06/08 10:36:44;;;;;;;4.75;0.95;;;23.70;44.00;;;;;;6178688;28;20030;-71
2022/06/08 10:39:47;;;;;;;1.63;0.80;;;23.70;44.10;;;;;;6199066;28;20049;-72
2022/06/08 10:42:50;;;;;;;4.40;1.23;;;23.70;44.00;;;;;;6198409;28;20042;-70
2022/06/08 10:46:02;;;;;;;6.72;1.15;;;23.70;44.20;;;;;;6171781;28;20034;-70
2022/06/08 10:49:03;;;;;;;8.23;1.00;;;23.70;44.20;;;;;;6179841;28;20038;-72
2022/06/08 10:52:19;;;;;;;7.78;1.40;;;23.70;44.50;;;;;;6161189;28;20022;-70
2022/06/08 10:55:20;;;;;;;6.45;1.23;;;23.70;44.80;;;;;;6181117;28;20070;-70
2022/06/08 10:58:22;;;;;;;3.53;1.17;;;23.70;44.70;;;;;;6174283;28;20049;-72
2022/06/08 11:01:57;;;;;;;2.53;1.08;;;23.50;45.20;;;;;;6196570;28;20031;-71
2022/06/08 11:05:19;;;;;;;3.38;1.33;;;23.20;46.00;;;;;;6165780;28;20125;-72
2022/06/08 11:08:23;;;;;;;4.63;1.10;;;22.90;46.80;;;;;;6157372;28;20042;-72
2022/06/08 11:11:44;;;;;;;5.68;1.40;;;22.90;47.20;;;;;;6180912;28;20026;-71
2022/06/08 11:14:48;;;;;;;5.00;1.10;;;22.80;47.20;;;;;;6174955;28;20034;-71
2022/06/08 11:18:11;;;;;;;9.65;1.10;;;22.90;47.10;;;;;;6178566;28;20034;-70
2022/06/08 11:21:15;;;;;;;2.55;1.42;;;23.00;47.10;;;;;;6172207;28;20022;-70
2022/06/08 11:24:23;;;;;;;7.32;2.35;;;23.00;46.90;;;;;;6177543;28;20053;-71
2022/06/08 11:27:30;;;;;;;4.88;1.35;;;23.10;47.00;;;;;;6193314;28;20026;-71
2022/06/08 11:30:37;;;;;;;9.63;1.42;;;23.20;47.00;;;;;;6168705;28;20035;-71
2022/06/08 11:33:51;;;;;;;6.95;1.50;;;23.20;47.00;;;;;;6199668;28;20370;-71
2022/06/08 11:37:04;;;;;;;11.15;1.58;;;23.20;47.20;;;;;;6187980;28;20033;-70
2022/06/08 11:40:27;;;;;;;3.45;1.58;;;23.20;47.50;;;;;;6204848;28;20034;-70
2022/06/08 11:43:37;;;;;;;4.70;1.17;;;23.20;47.80;;;;;;6198671;28;20027;-70
2022/06/08 11:46:45;;;;;;;3.33;1.73;;;23.30;48.10;;;;;;6176907;28;20068;-70
2022/06/08 11:50:02;;;;;;;5.32;1.95;;;23.40;47.90;;;;;;6188348;28;20533;-70
2022/06/08 11:53:10;;;;;;;6.47;1.40;;;23.70;47.90;;;;;;6173966;28;20089;-70
2022/06/08 11:56:29;;;;;;;2.67;1.63;;;23.90;47.70;;;;;;6179066;28;20058;-70
2022/06/08 11:59:36;;;;;;;7.20;2.03;;;24.10;47.50;;;;;;6177156;28;20061;-71
2022/06/08 12:02:39;;;;;;;3.33;1.70;;;24.70;47.10;;;;;;6177972;28;20038;-69
2022/06/08 12:05:39;;;;;;;5.70;1.88;;;25.30;46.30;;;;;;6198320;28;20216;-69
2022/06/08 12:08:53;;;;;;;9.30;2.05;;;25.70;45.70;;;;;;6180846;28;20038;-70
2022/06/08 12:12:02;;;;;;;8.48;1.67;;;26.10;45.20;;;;;;6196604;28;20019;-71
2022/06/08 12:15:31;;;;;;;3.78;1.80;;;26.30;44.70;;;;;;6181274;28;20041;-70
2022/06/08 12:18:38;;;;;;;7.68;1.92;;;26.40;44.60;;;;;;6202385;28;20028;-70
2022/06/08 12:21:42;;;;;;;4.93;1.80;;;26.80;44.20;;;;;;6200310;28;20036;-71
2022/06/08 12:24:45;;;;;;;6.20;1.70;;;27.40;43.40;;;;;;6193547;28;20043;-70
2022/06/08 12:27:58;;;;;;;4.45;1.73;;;27.80;42.40;;;;;;6187733;28;20073;-71
2022/06/08 12:30:59;;;;;;;7.03;1.38;;;28.00;41.40;;;;;;6179749;28;20034;-71
2022/06/08 12:34:26;;;;;;;5.40;1.50;;;28.00;41.00;;;;;;6194710;28;20038;-72
2022/06/08 12:37:29;;;;;;;8.27;1.85;;;27.80;40.80;;;;;;6177477;28;20142;-70
2022/06/08 12:40:33;;;;;;;11.35;1.60;;;27.80;40.60;;;;;;6199763;28;20038;-71
2022/06/08 12:44:03;;;;;;;6.05;1.52;;;27.90;40.40;;;;;;6187167;28;20026;-71
2022/06/08 12:47:18;;;;;;;4.45;1.60;;;28.20;39.60;;;;;;6172281;28;20034;-70
2022/06/08 12:50:25;;;;;;;3.92;1.70;;;28.80;38.80;;;;;;6195511;28;20046;-72
2022/06/08 12:53:26;;;;;;;6.10;1.35;;;29.50;37.10;;;;;;6163364;28;20034;-71
2022/06/08 12:56:28;;;;;;;3.60;0.85;;;29.80;36.00;;;;;;6199916;28;20029;-72
2022/06/08 12:59:33;;;;;;;3.42;1.10;;;29.70;35.30;;;;;;6195050;28;20069;-70
2022/06/08 13:02:38;;;;;;;9.70;1.23;;;29.60;35.30;;;;;;6181467;28;20395;-71
2022/06/08 13:05:40;;;;;;;3.03;1.17;;;29.60;35.10;;;;;;6166497;28;20100;-72
2022/06/08 13:08:41;;;;;;;3.53;1.23;;;29.60;35.10;;;;;;6181373;28;20061;-71
2022/06/08 13:11:44;;;;;;;3.42;1.13;;;29.40;34.90;;;;;;6214213;28;20462;-71
2022/06/08 13:14:45;;;;;;;1.83;0.80;;;29.10;34.80;;;;;;6198642;28;20045;-71
2022/06/08 13:17:47;;;;;;;5.95;1.40;;;28.80;35.10;;;;;;6200528;28;20030;-71
2022/06/08 13:20:47;;;;;;;3.38;1.02;;;28.70;35.10;;;;;;6186778;28;20097;-71
2022/06/08 13:23:49;;;;;;;3.58;1.63;;;28.60;35.30;;;;;;6205897;28;20380;-70
2022/06/08 13:26:52;;;;;;;3.13;1.17;;;28.40;35.60;;;;;;6201531;28;20036;-71
2022/06/08 13:29:53;;;;;;;1.85;1.02;;;28.10;35.80;;;;;;6220182;28;20046;-71
2022/06/08 13:32:58;;;;;;;2.80;0.95;;;27.90;36.00;;;;;;6208087;28;20367;-71
2022/06/08 13:36:30;;;;;;;1.35;1.02;;;27.70;36.20;;;;;;6221586;28;20040;-71
2022/06/08 13:39:36;;;;;;;6.85;1.33;;;27.50;36.50;;;;;;6219785;28;20100;-71
2022/06/08 13:42:38;;;;;;;2.80;1.50;;;27.40;36.60;;;;;;6219987;28;20022;-71
2022/06/08 13:45:42;;;;;;;3.33;0.95;;;27.30;36.90;;;;;;6226025;28;20052;-71
2022/06/08 13:48:42;;;;;;;3.88;1.20;;;27.30;37.00;;;;;;6199014;28;20097;-71
2022/06/08 13:51:44;;;;;;;2.63;0.90;;;27.20;36.90;;;;;;6204378;28;20064;-70
2022/06/08 13:54:52;;;;;;;7.20;1.13;;;27.10;37.00;;;;;;6220176;28;20134;-70
2022/06/08 13:57:54;;;;;;;;;;;27.00;37.10;;;;;;6197398;28;20115;-70
2022/06/08 14:01:02;;;;;;;6.15;1.25;;;26.90;37.20;;;;;;6205314;28;19920;-71
2022/06/08 14:04:12;;;;;;;4.38;1.17;;;26.80;37.30;;;;;;6188470;28;20022;-71
2022/06/08 14:13:59;;;;;;;2.45;1.13;;;26.80;37.40;;;;;;6212333;28;20029;-71
2022/06/08 14:17:00;;;;;;;3.55;1.05;;;27.00;37.20;;;;;;6218692;28;20031;-70
2022/06/08 14:20:02;;;;;;;3.33;0.95;;;27.10;37.00;;;;;;6167221;28;20026;-72
2022/06/08 14:23:08;;;;;;;2.40;1.00;;;27.10;36.90;;;;;;6220276;28;20018;-71
2022/06/08 14:26:20;;;;;;;2.72;1.00;;;27.00;37.00;;;;;;6197977;28;20053;-70
2022/06/08 14:29:22;;;;;;;1.38;0.73;;;26.90;37.30;;;;;;6201036;28;20132;-70
2022/06/08 14:32:45;;;;;;;2.15;0.88;;;26.80;37.50;;;;;;6220959;28;20099;-71
2022/06/08 14:35:48;;;;;;;2.97;1.00;;;26.90;37.80;;;;;;6222523;28;20030;-71
2022/06/08 14:38:51;;;;;;;4.72;0.98;;;27.20;37.20;;;;;;6205572;28;20053;-71
2022/06/08 14:41:53;;;;;;;3.40;0.70;;;27.30;37.10;;;;;;6220681;28;20092;-70
2022/06/08 14:44:54;;;;;;;2.50;0.80;;;27.30;37.00;;;;;;6184659;28;20061;-71
2022/06/08 14:47:56;;;;;;;2.38;0.57;;;27.30;36.90;;;;;;6203980;28;20432;-70
2022/06/08 14:50:57;;;;;;;1.45;0.63;;;27.20;36.80;;;;;;6204625;28;20518;-70
2022/06/08 20:15:29;;;;;;;0.90;0.55;;;20.70;64.30;;;;;;6232702;23;20046;-72
2022/06/08 20:18:30;;;;;;;3.28;1.20;;;20.60;64.30;;;;;;6205213;28;20473;-74
2022/06/08 20:21:31;;;;;;;2.88;0.73;;;20.70;63.80;;;;;;6225647;28;20033;-76
2022/06/08 20:24:32;;;;;;;7.72;1.60;;;20.60;63.50;;;;;;6208088;28;20033;-73
2022/06/08 20:27:34;;;;;;;1.73;1.05;;;20.70;63.50;;;;;;6224802;28;20029;-73
2022/06/08 20:30:37;;;;;;;1.65;1.00;;;20.70;63.50;;;;;;6221303;28;20103;-73
2022/06/08 20:33:38;;;;;;;6.13;1.00;;;20.80;63.40;;;;;;6206845;28;20061;-74
2022/06/08 20:36:40;;;;;;;1.52;0.70;;;20.80;63.50;;;;;;6207755;28;20030;-73
2022/06/08 20:39:41;;;;;;;3.75;0.90;;;20.90;63.40;;;;;;6207809;28;20030;-74
2022/06/08 20:42:42;;;;;;;4.80;0.77;;;20.90;63.30;;;;;;6224259;28;20050;-74
2022/06/08 20:45:46;;;;;;;2.40;0.88;;;20.90;63.40;;;;;;6226955;28;20088;-75
2022/06/08 20:49:00;;;;;;;1.27;0.70;;;20.90;63.20;;;;;;6188361;28;20033;-74
2022/06/08 20:52:02;;;;;;;5.95;1.20;;;20.90;63.20;;;;;;6191298;28;20037;-74
2022/06/08 20:55:04;;;;;;;9.70;1.10;;;20.90;63.20;;;;;;6206304;28;20076;-73
2022/06/08 20:58:07;;;;;;;2.63;1.25;;;20.90;63.40;;;;;;6207456;28;20105;-73
2022/06/08 21:01:09;;;;;;;4.35;0.95;;;20.90;63.70;;;;;;6206000;28;20112;-73
2022/06/08 21:12:55;;;;;;;4.10;1.23;;;20.90;63.50;;;;;;6220891;28;20058;-72
2022/06/08 21:20:21;;;;;;;2.08;1.30;;;20.90;63.10;;;;;;6221901;28;20061;-72
2022/06/08 21:23:22;;;;;;;3.40;1.10;;;20.90;62.90;;;;;;6206097;28;20084;-72
2022/06/08 21:26:23;;;;;;;5.80;1.00;;;20.90;63.30;;;;;;6206577;28;20396;-72
2022/06/08 21:29:25;;;;;;;3.53;0.70;;;20.90;63.60;;;;;;6180245;28;20025;-73
2022/06/08 21:32:26;;;;;;;6.97;1.30;;;20.90;63.90;;;;;;6226704;28;20517;-72
2022/06/08 21:35:27;;;;;;;3.53;1.05;;;20.90;63.90;;;;;;6223567;28;20026;-71
2022/06/08 21:38:28;;;;;;;2.67;1.05;;;21.00;63.80;;;;;;6222663;28;20033;-71
2022/06/08 21:41:29;;;;;;;2.72;0.90;;;21.10;63.60;;;;;;6223010;28;20108;-73
2022/06/08 21:44:30;;;;;;;5.60;1.25;;;21.10;63.50;;;;;;6221777;28;20044;-73
2022/06/08 21:47:31;;;;;;;8.25;1.20;;;21.00;63.50;;;;;;6207029;28;20045;-74
2022/06/08 21:50:34;;;;;;;1.00;0.80;;;21.10;63.50;;;;;;6221083;28;20029;-74
2022/06/08 21:53:35;;;;;;;0.85;0.50;;;21.10;63.40;;;;;;6205414;28;20037;-74
2022/06/08 21:56:36;;;;;;;0.63;0.50;;;21.20;63.10;;;;;;6222642;28;20048;-73
2022/06/08 21:59:37;;;;;;;2.17;0.80;;;21.20;63.10;;;;;;6222826;28;20117;-74
2022/06/08 22:02:38;;;;;;;4.38;0.80;;;21.20;63.10;;;;;;6207890;28;20029;-74
2022/06/08 22:05:39;;;;;;;2.92;1.10;;;21.20;63.10;;;;;;6223086;28;20158;-74
2022/06/08 22:08:47;;;;;;;4.03;1.00;;;21.20;63.10;;;;;;6222984;28;20029;-74
2022/06/08 22:11:48;;;;;;;2.72;1.05;;;21.20;63.40;;;;;;6205229;28;20033;-74
2022/06/08 22:14:50;;;;;;;2.03;1.10;;;21.20;63.40;;;;;;6188815;28;20128;-74
2022/06/08 22:17:52;;;;;;;3.90;1.20;;;21.20;63.30;;;;;;6207930;28;20124;-74
2022/06/08 22:20:55;;;;;;;4.95;1.30;;;21.20;63.50;;;;;;6221601;28;20033;-74
2022/06/08 22:23:56;;;;;;;3.67;0.93;;;21.30;63.70;;;;;;6205133;28;20415;-74
2022/06/08 22:26:57;;;;;;;1.80;0.90;;;21.30;63.50;;;;;;6221733;28;20045;-74
2022/06/08 22:29:59;;;;;;;2.03;0.98;;;21.30;63.50;;;;;;6222941;28;20937;-74
2022/06/08 22:33:00;;;;;;;6.55;1.52;;;21.40;63.30;;;;;;6205904;28;20061;-74
2022/06/08 22:36:03;;;;;;;3.55;1.25;;;21.50;63.30;;;;;;6204700;28;20080;-74
2022/06/08 22:39:04;;;;;;;3.53;1.30;;;21.40;63.10;;;;;;6221837;28;20037;-74
2022/06/08 22:42:05;;;;;;;8.05;1.10;;;21.50;62.90;;;;;;6205545;28;20408;-73
2022/06/08 22:45:13;;;;;;;2.75;1.17;;;21.50;62.70;;;;;;6222242;28;20046;-73
2022/06/08 22:48:14;;;;;;;;;;;21.50;62.70;;;;;;6219400;28;20037;-74
2022/06/08 22:51:16;;;;;;;2.55;1.05;;;21.60;62.50;;;;;;6216216;28;19909;-73
2022/06/08 22:54:16;;;;;;;2.15;1.08;;;21.60;62.20;;;;;;6222478;28;20029;-74
2022/06/08 22:57:17;;;;;;;14.40;1.45;;;21.50;62.10;;;;;;6221885;28;20044;-73
2022/06/08 23:00:20;;;;;;;1.15;0.73;;;21.50;62.20;;;;;;6222441;28;20018;-73
2022/06/08 23:03:26;;;;;;;2.50;0.75;;;21.40;62.40;;;;;;6204982;28;20113;-74
2022/06/08 23:06:27;;;;;;;1.83;0.80;;;21.30;62.80;;;;;;6204716;28;20025;-73
2022/06/08 23:09:28;;;;;;;4.13;0.90;;;21.30;62.50;;;;;;6204444;28;20041;-72
2022/06/08 23:12:29;;;;;;;1.88;1.00;;;21.30;62.40;;;;;;6221987;28;20403;-73
2022/06/08 23:15:32;;;;;;;1.60;0.98;;;21.20;62.30;;;;;;6221765;28;20069;-73
2022/06/08 23:21:52;;;;;;;6.70;1.10;;;21.20;62.20;;;;;;6218270;28;20765;-73
2022/06/08 23:24:53;;;;;;;1.50;0.80;;;21.20;62.20;;;;;;6188280;28;20030;-73
2022/06/08 23:27:54;;;;;;;1.85;0.77;;;21.20;62.20;;;;;;6202165;28;20026;-74
2022/06/08 23:30:55;;;;;;;3.10;0.70;;;21.20;62.30;;;;;;6204470;28;20375;-73
2022/06/08 23:33:58;;;;;;;2.45;0.82;;;21.10;62.40;;;;;;6225621;28;20041;-74
2022/06/08 23:37:00;;;;;;;1.88;0.70;;;21.00;62.90;;;;;;6227325;28;20026;-73
2022/06/08 23:40:02;;;;;;;1.20;0.50;;;20.90;63.50;;;;;;6222693;28;20085;-74